createdAt,value
2023-04-21T00:01:08.553Z,101778.66
2023-04-21T00:03:38.444Z,101778.22
2023-04-21T00:06:07.388Z,101770.09
2023-04-21T00:08:38.143Z,101766.31
2023-04-21T00:11:07.507Z,101770.22
2023-04-21T00:13:36.127Z,101759.88
2023-04-21T00:16:04.180Z,101758.44
2023-04-21T00:18:32.301Z,101759.53
2023-04-21T00:21:00.158Z,101761.66
2023-04-21T00:23:28.083Z,101755.63
2023-04-21T00:25:56.106Z,101746.94
2023-04-21T00:28:25.387Z,101741.88
2023-04-21T00:30:54.444Z,101736.56
2023-04-21T00:33:22.370Z,101742.16
2023-04-21T00:35:50.339Z,101737.13
2023-04-21T00:38:18.353Z,101733.28
2023-04-21T00:40:46.280Z,101718.84
2023-04-21T00:43:14.201Z,101723.03
2023-04-21T00:45:46.038Z,101722.56
2023-04-21T00:48:14.084Z,101719.78
2023-04-21T00:50:42.220Z,101714.00
2023-04-21T00:53:10.287Z,101714.13
2023-04-21T00:55:38.273Z,101700.28
2023-04-21T00:58:06.339Z,101699.56
2023-04-21T01:00:34.267Z,101693.56
2023-04-21T01:03:03.910Z,101689.31
2023-04-21T01:05:32.404Z,101669.84
2023-04-21T01:08:00.321Z,101679.78
2023-04-21T01:10:28.257Z,101673.19
2023-04-21T01:12:56.192Z,101668.28
2023-04-21T01:15:24.445Z,101668.53
2023-04-21T01:17:54.332Z,101678.47
2023-04-21T01:20:23.824Z,101663.78
2023-04-21T01:22:53.112Z,101664.75
2023-04-21T01:25:22.443Z,101671.31
2023-04-21T01:27:50.489Z,101658.03
2023-04-21T01:30:18.454Z,101660.81
2023-04-21T01:32:46.470Z,101658.53
2023-04-21T01:35:14.535Z,101660.03
2023-04-21T01:37:42.478Z,101651.94
2023-04-21T01:40:12.443Z,101638.44
2023-04-21T01:42:42.654Z,101637.00
2023-04-21T01:45:11.341Z,101647.19
2023-04-21T01:47:39.384Z,101641.28
2023-04-21T01:50:08.489Z,101640.59
2023-04-21T01:52:36.472Z,101631.06
2023-04-21T01:55:04.501Z,101639.03
2023-04-21T01:57:34.052Z,101629.13
2023-04-21T02:00:02.215Z,101639.47
2023-04-21T02:02:30.283Z,101635.00
2023-04-21T02:04:58.264Z,101623.78
2023-04-21T02:07:26.220Z,101622.88
2023-04-21T02:09:54.801Z,101631.66
2023-04-21T02:12:22.748Z,101633.16
2023-04-21T02:14:52.036Z,101650.34
2023-04-21T02:17:20.046Z,101647.44
2023-04-21T02:19:48.303Z,101645.47
2023-04-21T02:22:16.211Z,101649.69
2023-04-21T02:24:44.184Z,101649.44
2023-04-21T02:27:13.394Z,101642.03
2023-04-21T02:29:41.378Z,101646.38
2023-04-21T02:32:18.298Z,101656.03
2023-04-21T02:34:53.330Z,101642.75
2023-04-21T02:37:21.501Z,101638.53
2023-04-21T02:39:49.550Z,101644.94
2023-04-21T02:42:17.581Z,101648.59
2023-04-21T02:44:45.485Z,101651.25
2023-04-21T02:47:16.276Z,101650.53
2023-04-21T02:49:44.589Z,101648.00
2023-04-21T02:52:13.691Z,101645.47
2023-04-21T02:54:41.648Z,101645.75
2023-04-21T02:57:10.220Z,101644.06
2023-04-21T02:59:38.199Z,101636.72
2023-04-21T03:02:06.266Z,101640.13
2023-04-21T03:04:36.274Z,101635.34
2023-04-21T03:07:05.482Z,101639.16
2023-04-21T03:09:33.546Z,101626.25
2023-04-21T03:12:01.668Z,101632.03
2023-04-21T03:14:29.628Z,101625.50
2023-04-21T03:16:57.627Z,101617.16
2023-04-21T03:19:25.712Z,101615.31
2023-04-21T03:21:55.052Z,101604.47
2023-04-21T03:24:23.128Z,101607.13
2023-04-21T03:26:51.308Z,101593.72
2023-04-21T03:29:19.641Z,101610.50
2023-04-21T03:31:47.999Z,101610.63
2023-04-21T03:34:16.488Z,101603.63
2023-04-21T03:36:44.596Z,101612.09
2023-04-21T03:41:47.187Z,101598.81
2023-04-21T03:44:15.216Z,101599.56
2023-04-21T03:46:43.181Z,101591.88
2023-04-21T03:49:11.218Z,101589.91
2023-04-21T03:51:39.097Z,101588.38
2023-04-21T03:54:07.112Z,101601.38
2023-04-21T03:56:36.488Z,101580.00
2023-04-21T03:59:04.876Z,101579.63
2023-04-21T04:01:32.920Z,101573.09
2023-04-21T04:04:00.979Z,101571.88
2023-04-21T04:06:29.622Z,101551.47
2023-04-21T04:08:57.529Z,101555.81
2023-04-21T04:11:25.487Z,101550.50
2023-04-21T04:13:54.783Z,101555.81
2023-04-21T04:16:23.093Z,101552.91
2023-04-21T04:18:51.174Z,101548.31
2023-04-21T04:21:19.107Z,101542.75
2023-04-21T04:23:47.158Z,101539.97
2023-04-21T04:26:15.240Z,101545.28
2023-04-21T04:28:43.165Z,101533.81
2023-04-21T04:31:13.525Z,101536.59
2023-04-21T04:33:43.171Z,101539.13
2023-04-21T04:36:11.999Z,101538.28
2023-04-21T04:38:40.343Z,101531.28
2023-04-21T04:41:09.102Z,101528.75
2023-04-21T04:43:39.082Z,101534.91
2023-04-21T04:46:09.080Z,101520.06
2023-04-21T04:48:38.742Z,101518.41
2023-04-21T04:51:07.920Z,101512.81
2023-04-21T04:53:35.938Z,101507.97
2023-04-21T04:56:03.992Z,101502.53
2023-04-21T04:58:31.947Z,101507.00
2023-04-21T05:00:59.939Z,101514.28
2023-04-21T05:03:28.069Z,101514.28
2023-04-21T05:05:57.575Z,101508.25
2023-04-21T05:08:25.760Z,101512.59
2023-04-21T05:10:53.681Z,101523.19
2023-04-21T05:13:21.579Z,101516.44
2023-04-21T05:15:49.571Z,101520.06
2023-04-21T05:18:17.508Z,101515.03
2023-04-21T05:20:45.430Z,101510.56
2023-04-21T05:23:18.426Z,101511.66
2023-04-21T05:25:46.524Z,101499.63
2023-04-21T05:28:14.884Z,101496.50
2023-04-21T05:30:42.955Z,101493.41
2023-04-21T05:33:11.002Z,101488.38
2023-04-21T05:35:39.002Z,101490.31
2023-04-21T05:38:07.217Z,101499.22
2023-04-21T05:40:36.516Z,101495.63
2023-04-21T05:43:04.552Z,101491.16
2023-04-21T05:45:32.483Z,101502.59
2023-04-21T05:48:00.514Z,101498.28
2023-04-21T05:50:34.030Z,101496.34
2023-04-21T05:53:02.132Z,101498.16
2023-04-21T05:55:30.020Z,101499.22
2023-04-21T05:57:59.448Z,101501.16
2023-04-21T06:00:27.463Z,101493.28
2023-04-21T06:02:55.499Z,101485.50
2023-04-21T06:05:23.908Z,101485.59
2023-04-21T06:07:51.862Z,101484.53
2023-04-21T06:10:19.849Z,101481.63
2023-04-21T06:12:47.893Z,101482.59
2023-04-21T06:15:19.400Z,101473.66
2023-04-21T06:17:47.390Z,101477.75
2023-04-21T06:20:15.448Z,101487.00
2023-04-21T06:22:43.883Z,101488.41
2023-04-21T06:25:11.925Z,101482.75
2023-04-21T06:27:39.999Z,101485.41
2023-04-21T06:30:09.653Z,101484.16
2023-04-21T06:32:39.044Z,101482.78
2023-04-21T06:35:07.449Z,101477.09
2023-04-21T06:37:35.431Z,101477.97
2023-04-21T06:40:03.582Z,101472.97
2023-04-21T06:42:31.573Z,101462.94
2023-04-21T06:44:59.464Z,101466.03
2023-04-21T06:47:27.632Z,101464.22
2023-04-21T06:49:57.200Z,101453.72
2023-04-21T06:52:25.095Z,101448.16
2023-04-21T06:54:53.091Z,101453.47
2023-04-21T06:57:20.980Z,101452.50
2023-04-21T06:59:49.008Z,101445.81
2023-04-21T07:02:17.088Z,101443.72
2023-04-21T07:04:45.173Z,101442.06
2023-04-21T07:07:14.675Z,101442.31
2023-04-21T07:09:42.613Z,101444.00
2023-04-21T07:12:10.589Z,101435.59
2023-04-21T07:14:38.618Z,101438.28
2023-04-21T07:17:06.761Z,101440.13
2023-04-21T07:19:34.979Z,101437.63
2023-04-21T07:22:02.897Z,101432.34
2023-04-21T07:24:34.441Z,101430.13
2023-04-21T07:27:02.569Z,101418.94
2023-04-21T07:29:30.636Z,101417.53
2023-04-21T07:31:58.634Z,101421.75
2023-04-21T07:34:26.659Z,101416.16
2023-04-21T07:36:56.624Z,101416.06
2023-04-21T07:39:24.582Z,101404.44
2023-04-21T07:41:53.983Z,101400.09
2023-04-21T07:44:21.861Z,101395.19
2023-04-21T07:46:49.834Z,101397.31
2023-04-21T07:49:18.357Z,101396.75
2023-04-21T07:51:46.435Z,101394.22
2023-04-21T07:54:14.610Z,101401.19
2023-04-21T07:56:42.694Z,101399.63
2023-04-21T07:59:12.088Z,101391.22
2023-04-21T08:01:40.106Z,101383.91
2023-04-21T08:04:08.211Z,101389.69
2023-04-21T08:06:36.747Z,101398.75
2023-04-21T08:09:05.063Z,101389.03
2023-04-21T08:11:32.995Z,101365.75
2023-04-21T08:14:01.198Z,101392.78
2023-04-21T08:16:30.653Z,101391.88
2023-04-21T08:18:59.122Z,101385.91
2023-04-21T08:21:28.409Z,101388.75
2023-04-21T08:23:57.508Z,101391.13
2023-04-21T08:26:25.705Z,101384.16
2023-04-21T08:28:53.771Z,101387.63
2023-04-21T08:31:21.838Z,101379.13
2023-04-21T08:34:00.923Z,101372.09
2023-04-21T08:36:32.004Z,101367.09
2023-04-21T08:39:00.174Z,101365.13
2023-04-21T08:41:30.490Z,101366.75
2023-04-21T08:43:58.462Z,101359.78
2023-04-21T08:46:26.579Z,101355.78
2023-04-21T08:48:55.935Z,101351.28
2023-04-21T08:51:25.136Z,101345.66
2023-04-21T08:53:53.104Z,101342.81
2023-04-21T08:56:21.160Z,101344.50
2023-04-21T08:58:49.243Z,101334.50
2023-04-21T09:01:17.677Z,101333.88
2023-04-21T09:03:48.071Z,101330.41
2023-04-21T09:06:18.294Z,101327.13
2023-04-21T09:08:56.241Z,101328.50
2023-04-21T09:11:25.788Z,101334.53
2023-04-21T09:13:55.523Z,101344.13
2023-04-21T09:16:23.742Z,101337.44
2023-04-21T09:18:51.909Z,101319.75
2023-04-21T09:21:23.292Z,101320.13
2023-04-21T09:23:53.857Z,101315.97
2023-04-21T09:26:23.099Z,101321.81
2023-04-21T09:28:52.060Z,101317.19
2023-04-21T09:31:25.340Z,101318.97
2023-04-21T09:33:58.671Z,101313.81
2023-04-21T09:36:30.547Z,101316.31
2023-04-21T09:41:31.871Z,101303.28
2023-04-21T09:44:01.804Z,101304.97
2023-04-21T09:46:31.272Z,101299.97
2023-04-21T09:48:59.536Z,101304.47
2023-04-21T09:51:42.864Z,101305.47
2023-04-21T09:54:29.118Z,101298.13
2023-04-21T09:57:01.740Z,101305.97
2023-04-21T09:59:31.608Z,101302.00
2023-04-21T10:01:59.927Z,101299.81
2023-04-21T10:04:31.022Z,101299.94
2023-04-21T10:07:01.223Z,101287.91
2023-04-21T10:09:32.678Z,101288.59
2023-04-21T10:12:02.761Z,101287.78
2023-04-21T10:14:31.066Z,101279.25
2023-04-21T10:16:59.947Z,101282.75
2023-04-21T10:19:28.744Z,101277.91
2023-04-21T10:21:57.517Z,101273.41
2023-04-21T10:24:29.469Z,101268.72
2023-04-21T10:26:59.524Z,101265.16
2023-04-21T10:29:34.766Z,101273.78
2023-04-21T10:32:09.486Z,101259.50
2023-04-21T10:34:38.600Z,101251.56
2023-04-21T10:37:28.086Z,101254.84
2023-04-21T10:39:57.969Z,101268.50
2023-04-21T10:42:36.967Z,101258.16
2023-04-21T10:45:11.936Z,101256.69
2023-04-21T10:47:42.933Z,101255.22
2023-04-21T10:50:21.701Z,101245.16
2023-04-21T10:52:54.708Z,101235.38
2023-04-21T10:55:27.060Z,101236.25
2023-04-21T10:57:55.078Z,101230.06
2023-04-21T11:00:24.008Z,101229.13
2023-04-21T11:03:00.512Z,101225.91
2023-04-21T11:05:29.924Z,101220.84
2023-04-21T11:08:15.574Z,101212.03
2023-04-21T11:10:50.407Z,101215.00
2023-04-21T11:13:18.574Z,101213.53
2023-04-21T11:16:04.552Z,101208.53
2023-04-21T11:18:38.676Z,101212.88
2023-04-21T11:21:15.994Z,101205.19
2023-04-21T11:24:03.057Z,101201.31
2023-04-21T11:26:33.409Z,101211.19
2023-04-21T11:29:02.952Z,101202.88
2023-04-21T11:31:32.032Z,101201.63
2023-04-21T11:34:05.240Z,101198.66
2023-04-21T11:36:33.906Z,101189.63
2023-04-21T11:39:08.578Z,101188.63
2023-04-21T11:41:40.726Z,101200.03
2023-04-21T11:44:09.563Z,101190.75
2023-04-21T11:46:38.087Z,101183.06
2023-04-21T11:49:07.127Z,101176.13
2023-04-21T11:51:35.655Z,101169.28
2023-04-21T11:54:06.368Z,101170.13
2023-04-21T11:56:40.376Z,101170.16
2023-04-21T11:59:08.971Z,101169.16
2023-04-21T12:01:37.176Z,101167.50
2023-04-21T12:04:07.271Z,101163.97
2023-04-21T12:06:38.734Z,101168.19
2023-04-21T12:09:06.746Z,101167.34
2023-04-21T12:11:35.938Z,101169.88
2023-04-21T12:14:05.529Z,101160.13
2023-04-21T12:16:33.732Z,101164.44
2023-04-21T12:19:02.279Z,101163.91
2023-04-21T12:21:30.526Z,101162.06
2023-04-21T12:23:58.619Z,101154.34
2023-04-21T12:26:26.635Z,101157.44
2023-04-21T12:28:54.727Z,101159.28
2023-04-21T12:31:24.153Z,101158.47
2023-04-21T12:33:52.504Z,101144.91
2023-04-21T12:36:20.750Z,101145.75
2023-04-21T12:38:48.660Z,101147.78
2023-04-21T12:41:17.702Z,101140.41
2023-04-21T12:43:46.050Z,101132.06
2023-04-21T12:46:18.516Z,101134.06
2023-04-21T12:48:48.823Z,101136.44
2023-04-21T12:51:17.729Z,101129.91
2023-04-21T12:53:47.068Z,101136.03
2023-04-21T12:56:15.288Z,101121.09
2023-04-21T12:58:43.397Z,101114.81
2023-04-21T13:01:12.225Z,101108.66
2023-04-21T13:03:40.475Z,101108.81
2023-04-21T13:06:10.137Z,101105.13
2023-04-21T13:08:38.244Z,101099.19
2023-04-21T13:11:06.588Z,101111.00
2023-04-21T13:13:34.608Z,101112.78
2023-04-21T13:16:02.609Z,101109.25
2023-04-21T13:18:31.003Z,101097.69
2023-04-21T13:20:59.026Z,101098.75
2023-04-21T13:23:28.382Z,101101.63
2023-04-21T13:25:56.475Z,101101.03
2023-04-21T13:28:26.693Z,101096.22
2023-04-21T13:30:54.993Z,101099.31
2023-04-21T13:33:22.996Z,101095.78
2023-04-21T13:35:51.097Z,101088.78
2023-04-21T13:38:20.639Z,101090.50
2023-04-21T13:40:51.503Z,101081.69
2023-04-21T13:43:20.156Z,101087.22
2023-04-21T13:45:50.697Z,101078.75
2023-04-21T13:48:19.264Z,101080.75
2023-04-21T13:50:47.280Z,101080.09
2023-04-21T13:53:16.427Z,101067.22
2023-04-21T13:55:45.569Z,101073.56
2023-04-21T13:58:15.756Z,101067.72
2023-04-21T14:00:43.921Z,101068.38
2023-04-21T14:03:12.646Z,101068.38
2023-04-21T14:05:40.917Z,101065.38
2023-04-21T14:08:09.351Z,101060.56
2023-04-21T14:10:37.413Z,101074.25
2023-04-21T14:13:05.579Z,101056.38
2023-04-21T14:15:34.987Z,101060.38
2023-04-21T14:18:06.968Z,101057.34
2023-04-21T14:20:36.762Z,101063.69
2023-04-21T14:23:05.266Z,101048.31
2023-04-21T14:25:33.296Z,101058.00
2023-04-21T14:30:37.287Z,101046.31
2023-04-21T14:33:06.175Z,101044.81
2023-04-21T14:35:34.276Z,101051.84
2023-04-21T14:38:02.261Z,101042.50
2023-04-21T14:40:30.834Z,101035.47
2023-04-21T14:42:58.988Z,101035.00
2023-04-21T14:45:27.294Z,101034.66
2023-04-21T14:47:56.724Z,101031.31
2023-04-21T14:50:27.199Z,101026.97
2023-04-21T14:53:01.509Z,101018.28
2023-04-21T14:55:29.777Z,101019.09
2023-04-21T14:57:57.752Z,101012.75
2023-04-21T15:00:26.192Z,101007.88
2023-04-21T15:02:54.270Z,101010.91
2023-04-21T15:05:24.565Z,100999.72
2023-04-21T15:07:52.707Z,101013.44
2023-04-21T15:10:21.136Z,101015.09
2023-04-21T15:12:49.746Z,101005.25
2023-04-21T15:15:25.530Z,101007.25
2023-04-21T15:17:53.495Z,100994.59
2023-04-21T15:20:36.429Z,100995.56
2023-04-21T15:23:11.031Z,100992.06
2023-04-21T15:25:39.952Z,100992.75
2023-04-21T15:28:10.414Z,100989.59
2023-04-21T15:30:38.816Z,100984.41
2023-04-21T15:33:06.873Z,100989.06
2023-04-21T15:35:36.380Z,100984.72
2023-04-21T15:38:05.238Z,100987.22
2023-04-21T15:40:41.189Z,100994.88
2023-04-21T15:43:14.779Z,100985.84
2023-04-21T15:45:43.530Z,100996.81
2023-04-21T15:48:13.138Z,100987.09
2023-04-21T15:50:43.516Z,100980.44
2023-04-21T15:53:11.854Z,100970.59
2023-04-21T15:55:39.906Z,100980.44
2023-04-21T15:58:07.986Z,100980.06
2023-04-21T16:00:35.942Z,100969.91
2023-04-21T16:03:04.111Z,100971.38
2023-04-21T16:05:33.241Z,100968.69
2023-04-21T16:08:02.642Z,100962.00
2023-04-21T16:10:30.765Z,100965.34
2023-04-21T16:12:59.448Z,100963.00
2023-04-21T16:15:28.478Z,100965.34
2023-04-21T16:18:06.273Z,100961.03
2023-04-21T16:20:34.341Z,100955.38
2023-04-21T16:23:04.806Z,100960.06
2023-04-21T16:25:33.060Z,100972.06
2023-04-21T16:28:02.352Z,100963.06
2023-04-21T16:30:30.375Z,100961.09
2023-04-21T16:33:07.764Z,100966.59
2023-04-21T16:35:39.812Z,100970.78
2023-04-21T16:38:09.494Z,100970.44
2023-04-21T16:40:37.448Z,100967.78
2023-04-21T16:43:05.596Z,100967.13
2023-04-21T16:45:37.825Z,100964.78
2023-04-21T16:48:08.229Z,100975.47
2023-04-21T16:50:36.371Z,100976.78
2023-04-21T16:53:04.282Z,100981.50
2023-04-21T16:55:33.613Z,100984.84
2023-04-21T16:58:01.572Z,100987.69
2023-04-21T17:00:30.456Z,100983.84
2023-04-21T17:02:58.727Z,100983.84
2023-04-21T17:05:27.030Z,100988.84
2023-04-21T17:07:55.309Z,100990.84
2023-04-21T17:10:23.243Z,100992.47
2023-04-21T17:12:52.589Z,100989.94
2023-04-21T17:15:20.897Z,100999.41
2023-04-21T17:17:49.567Z,100999.06
2023-04-21T17:20:17.863Z,101002.00
2023-04-21T17:22:46.347Z,100992.16
2023-04-21T17:25:14.292Z,100997.47
2023-04-21T17:27:42.952Z,101000.09
2023-04-21T17:30:12.882Z,100992.88
2023-04-21T17:32:41.664Z,100987.88
2023-04-21T17:35:10.386Z,100997.19
2023-04-21T17:37:38.373Z,100996.97
2023-04-21T17:40:09.557Z,100998.06
2023-04-21T17:42:37.668Z,100999.84
2023-04-21T17:45:07.564Z,100993.75
2023-04-21T17:47:37.291Z,100997.84
2023-04-21T17:50:06.307Z,100996.50
2023-04-21T17:52:34.533Z,100991.81
2023-04-21T17:55:02.580Z,100999.44
2023-04-21T17:57:30.903Z,100992.56
2023-04-21T17:59:58.836Z,100994.41
2023-04-21T18:02:27.058Z,100989.38
2023-04-21T18:04:56.793Z,100982.84
2023-04-21T18:07:25.087Z,101001.25
2023-04-21T18:09:53.055Z,100994.25
2023-04-21T18:12:28.255Z,100985.28
2023-04-21T18:14:56.347Z,100992.66
2023-04-21T18:17:24.363Z,100990.00
2023-04-21T18:19:52.705Z,100986.69
2023-04-21T18:22:22.260Z,100977.16
2023-04-21T18:24:50.232Z,100983.47
2023-04-21T18:27:18.194Z,100983.94
2023-04-21T18:29:46.159Z,100988.72
2023-04-21T18:32:14.544Z,100980.88
2023-04-21T18:34:42.695Z,100976.56
2023-04-21T18:37:10.851Z,100973.44
2023-04-21T18:39:40.978Z,100968.59
2023-04-21T18:42:10.576Z,100973.66
2023-04-21T18:44:39.362Z,100970.84
2023-04-21T18:47:07.684Z,100985.22
2023-04-21T18:49:35.661Z,100981.19
2023-04-21T18:52:06.179Z,100978.47
2023-04-21T18:54:34.177Z,100985.06
2023-04-21T18:57:04.201Z,100985.00
2023-04-21T18:59:32.246Z,100981.66
2023-04-21T19:02:01.218Z,100980.97
2023-04-21T19:04:29.574Z,100970.94
2023-04-21T19:06:57.701Z,100974.50
2023-04-21T19:09:27.208Z,100977.66
2023-04-21T19:11:55.234Z,100982.47
2023-04-21T19:14:25.467Z,100971.03
2023-04-21T19:16:53.994Z,100971.94
2023-04-21T19:19:22.228Z,100974.19
2023-04-21T19:21:50.314Z,100982.47
2023-04-21T19:24:18.269Z,100977.53
2023-04-21T19:26:46.726Z,100977.41
2023-04-21T19:29:15.083Z,100980.03
2023-04-21T19:31:44.520Z,100984.19
2023-04-21T19:34:13.289Z,100981.38
2023-04-21T19:36:41.995Z,100984.75
2023-04-21T19:39:10.163Z,100991.13
2023-04-21T19:41:38.158Z,100975.47
2023-04-21T19:44:06.482Z,100980.16
2023-04-21T19:46:37.304Z,100970.38
2023-04-21T19:49:06.711Z,100975.69
2023-04-21T19:51:35.934Z,100973.31
2023-04-21T19:54:11.523Z,100974.03
2023-04-21T19:56:40.760Z,100967.63
2023-04-21T19:59:08.731Z,100967.41
2023-04-21T20:01:36.819Z,100957.38
2023-04-21T20:04:06.994Z,100959.91
2023-04-21T20:06:35.515Z,100962.47
2023-04-21T20:09:05.864Z,100954.44
2023-04-21T20:11:34.200Z,100956.97
2023-04-21T20:14:02.243Z,100961.47
2023-04-21T20:16:30.365Z,100952.41
2023-04-21T20:18:58.941Z,100946.72
2023-04-21T20:21:28.866Z,100962.53
2023-04-21T20:23:57.069Z,100956.81
2023-04-21T20:26:25.122Z,100959.59
2023-04-21T20:28:53.288Z,100941.16
2023-04-21T20:31:25.759Z,100953.06
2023-04-21T20:33:53.885Z,100951.50
2023-04-21T20:36:22.251Z,100950.28
2023-04-21T20:38:51.712Z,100946.22
2023-04-21T20:41:23.353Z,100944.84
2023-04-21T20:43:51.995Z,100939.13
2023-04-21T20:46:20.031Z,100936.06
2023-04-21T20:48:48.043Z,100935.63
2023-04-21T20:51:16.224Z,100936.19
2023-04-21T20:53:44.170Z,100929.78
2023-04-21T20:56:13.668Z,100927.53
2023-04-21T20:58:41.695Z,100931.59
2023-04-21T21:01:10.177Z,100928.38
2023-04-21T21:03:38.351Z,100925.88
2023-04-21T21:06:06.559Z,100916.81
2023-04-21T21:08:35.462Z,100921.69
2023-04-21T21:11:03.719Z,100919.31
2023-04-21T21:13:33.117Z,100916.66
2023-04-21T21:16:01.134Z,100915.28
2023-04-21T21:18:29.110Z,100913.59
2023-04-21T21:20:57.256Z,100911.22
2023-04-21T21:23:25.268Z,100916.94
2023-04-21T21:25:53.231Z,100913.03
2023-04-21T21:28:21.412Z,100909.94
2023-04-21T21:30:50.757Z,100910.22
2023-04-21T21:33:18.746Z,100908.81
2023-04-21T21:35:46.679Z,100904.78
2023-04-21T21:38:14.588Z,100905.03
2023-04-21T21:40:42.616Z,100917.88
2023-04-21T21:43:10.960Z,100909.22
2023-04-21T21:45:39.100Z,100911.31
2023-04-21T21:48:08.654Z,100913.25
2023-04-21T21:50:36.631Z,100910.72
2023-04-21T21:53:04.754Z,100912.84
2023-04-21T21:55:32.721Z,100911.28
2023-04-21T21:58:03.432Z,100910.84
2023-04-21T22:00:31.441Z,100902.34
2023-04-21T22:03:00.076Z,100902.75
2023-04-21T22:05:29.565Z,100900.34
2023-04-21T22:07:58.300Z,100902.59
2023-04-21T22:10:26.283Z,100899.50
2023-04-21T22:12:54.434Z,100901.69
2023-04-21T22:15:22.691Z,100905.56
2023-04-21T22:17:50.788Z,100899.69
2023-04-21T22:20:19.284Z,100899.13
2023-04-21T22:22:48.622Z,100902.31
2023-04-21T22:25:17.003Z,100899.78
2023-04-21T22:27:45.005Z,100893.78
2023-04-21T22:30:13.481Z,100898.25
2023-04-21T22:32:41.491Z,100901.59
2023-04-21T22:35:10.042Z,100899.22
2023-04-21T22:37:37.979Z,100904.06
2023-04-21T22:40:08.903Z,100893.75
2023-04-21T22:42:37.135Z,100899.06
2023-04-21T22:45:05.545Z,100904.84
2023-04-21T22:47:33.699Z,100887.69
2023-04-21T22:50:01.850Z,100881.84
2023-04-21T22:52:29.822Z,100888.09
2023-04-21T22:54:57.857Z,100890.88
2023-04-21T22:57:27.185Z,100878.50
2023-04-21T22:59:55.215Z,100880.28
2023-04-21T23:02:23.379Z,100876.81
2023-04-21T23:04:51.577Z,100867.47
2023-04-21T23:07:19.479Z,100865.38
2023-04-21T23:09:47.479Z,100862.25
2023-04-21T23:12:15.667Z,100861.09
2023-04-21T23:14:45.051Z,100855.38
2023-04-21T23:17:13.451Z,100855.63
2023-04-21T23:19:42.009Z,100858.25
2023-04-21T23:22:09.986Z,100863.69
2023-04-21T23:24:38.034Z,100853.63
2023-04-21T23:27:06.064Z,100852.22
2023-04-21T23:29:34.115Z,100841.88
2023-04-21T23:32:03.698Z,100836.28
2023-04-21T23:34:31.626Z,100840.88
2023-04-21T23:36:59.564Z,100844.63
2023-04-21T23:39:27.584Z,100845.97
2023-04-21T23:41:55.822Z,100852.34
2023-04-21T23:44:23.788Z,100847.91
2023-04-21T23:46:51.805Z,100848.63
2023-04-21T23:49:21.972Z,100840.69
2023-04-21T23:51:50.009Z,100845.13
2023-04-21T23:54:17.975Z,100837.31
2023-04-21T23:56:46.003Z,100840.22
2023-04-21T23:59:14.725Z,100833.28
